sensor_id;sensor_type;location;lat;lon;timestamp;P1;durP1;ratioP1;P2;durP2;ratioP2
10277;SDS011;5184;51.376;7.148;2023-07-13T00:01:45;5.23;;;1.70;;
10277;SDS011;5184;51.376;7.148;2023-07-13T00:04:13;5.77;;;1.80;;
10277;SDS011;5184;51.376;7.148;2023-07-13T00:06:39;3.70;;;1.73;;
10277;SDS011;5184;51.376;7.148;2023-07-13T00:09:06;4.17;;;1.60;;
10277;SDS011;5184;51.376;7.148;2023-07-13T00:11:32;4.07;;;1.70;;
10277;SDS011;5184;51.376;7.148;2023-07-13T00:13:59;2.53;;;1.70;;
10277;SDS011;5184;51.376;7.148;2023-07-13T00:16:25;4.70;;;2.00;;
10277;SDS011;5184;51.376;7.148;2023-07-13T00:18:53;5.50;;;1.80;;
10277;SDS011;5184;51.376;7.148;2023-07-13T00:21:20;7.53;;;2.13;;
10277;SDS011;5184;51.376;7.148;2023-07-13T00:23:47;5.60;;;1.83;;
10277;SDS011;5184;51.376;7.148;2023-07-13T00:26:13;4.07;;;1.90;;
10277;SDS011;5184;51.376;7.148;2023-07-13T00:28:40;3.77;;;1.77;;
10277;SDS011;5184;51.376;7.148;2023-07-13T00:31:08;4.03;;;1.80;;
10277;SDS011;5184;51.376;7.148;2023-07-13T00:33:34;5.37;;;1.80;;
10277;SDS011;5184;51.376;7.148;2023-07-13T00:36:00;3.00;;;1.47;;
10277;SDS011;5184;51.376;7.148;2023-07-13T00:38:28;3.43;;;1.83;;
10277;SDS011;5184;51.376;7.148;2023-07-13T00:40:55;3.97;;;1.97;;
10277;SDS011;5184;51.376;7.148;2023-07-13T00:43:23;4.23;;;1.70;;
10277;SDS011;5184;51.376;7.148;2023-07-13T00:46:22;4.10;;;1.90;;
10277;SDS011;5184;51.376;7.148;2023-07-13T00:48:34;3.97;;;1.83;;
10277;SDS011;5184;51.376;7.148;2023-07-13T00:50:59;4.87;;;1.90;;
10277;SDS011;5184;51.376;7.148;2023-07-13T00:53:26;4.67;;;1.77;;
10277;SDS011;5184;51.376;7.148;2023-07-13T00:55:53;3.87;;;1.70;;
10277;SDS011;5184;51.376;7.148;2023-07-13T00:58:20;2.80;;;1.60;;
10277;SDS011;5184;51.376;7.148;2023-07-13T01:00:47;3.57;;;1.63;;
10277;SDS011;5184;51.376;7.148;2023-07-13T01:03:14;4.50;;;1.90;;
10277;SDS011;5184;51.376;7.148;2023-07-13T01:05:40;7.03;;;2.33;;
10277;SDS011;5184;51.376;7.148;2023-07-13T01:08:07;5.00;;;1.80;;
10277;SDS011;5184;51.376;7.148;2023-07-13T01:10:33;4.40;;;2.10;;
10277;SDS011;5184;51.376;7.148;2023-07-13T01:13:00;3.43;;;1.73;;
10277;SDS011;5184;51.376;7.148;2023-07-13T01:18:00;3.63;;;1.57;;
10277;SDS011;5184;51.376;7.148;2023-07-13T01:20:26;6.13;;;2.10;;
10277;SDS011;5184;51.376;7.148;2023-07-13T01:22:53;5.00;;;1.80;;
10277;SDS011;5184;51.376;7.148;2023-07-13T01:25:19;4.53;;;2.00;;
10277;SDS011;5184;51.376;7.148;2023-07-13T01:27:47;3.47;;;1.97;;
10277;SDS011;5184;51.376;7.148;2023-07-13T01:30:14;3.07;;;1.73;;
10277;SDS011;5184;51.376;7.148;2023-07-13T01:32:41;4.63;;;1.83;;
10277;SDS011;5184;51.376;7.148;2023-07-13T01:35:08;4.23;;;1.80;;
10277;SDS011;5184;51.376;7.148;2023-07-13T01:37:35;5.47;;;1.87;;
10277;SDS011;5184;51.376;7.148;2023-07-13T01:40:03;3.27;;;1.77;;
10277;SDS011;5184;51.376;7.148;2023-07-13T01:42:29;3.40;;;2.10;;
10277;SDS011;5184;51.376;7.148;2023-07-13T01:44:55;3.20;;;2.00;;
10277;SDS011;5184;51.376;7.148;2023-07-13T01:47:22;5.20;;;1.77;;
10277;SDS011;5184;51.376;7.148;2023-07-13T01:49:49;4.03;;;1.80;;
10277;SDS011;5184;51.376;7.148;2023-07-13T01:52:16;4.53;;;2.00;;
10277;SDS011;5184;51.376;7.148;2023-07-13T01:54:43;4.63;;;2.00;;
10277;SDS011;5184;51.376;7.148;2023-07-13T01:57:10;3.07;;;1.70;;
10277;SDS011;5184;51.376;7.148;2023-07-13T01:59:36;3.13;;;1.60;;
10277;SDS011;5184;51.376;7.148;2023-07-13T02:02:03;5.10;;;2.37;;
10277;SDS011;5184;51.376;7.148;2023-07-13T02:04:30;4.23;;;2.00;;
10277;SDS011;5184;51.376;7.148;2023-07-13T02:06:57;3.63;;;2.10;;
10277;SDS011;5184;51.376;7.148;2023-07-13T02:09:24;4.50;;;1.80;;
10277;SDS011;5184;51.376;7.148;2023-07-13T02:11:51;4.83;;;1.90;;
10277;SDS011;5184;51.376;7.148;2023-07-13T02:14:18;4.73;;;1.73;;
10277;SDS011;5184;51.376;7.148;2023-07-13T02:16:44;5.20;;;2.40;;
10277;SDS011;5184;51.376;7.148;2023-07-13T02:19:11;4.33;;;1.80;;
10277;SDS011;5184;51.376;7.148;2023-07-13T02:21:37;4.40;;;2.00;;
10277;SDS011;5184;51.376;7.148;2023-07-13T02:24:05;6.40;;;1.80;;
10277;SDS011;5184;51.376;7.148;2023-07-13T02:26:32;6.40;;;2.10;;
10277;SDS011;5184;51.376;7.148;2023-07-13T02:28:59;4.07;;;2.00;;
10277;SDS011;5184;51.376;7.148;2023-07-13T02:31:25;4.23;;;2.00;;
10277;SDS011;5184;51.376;7.148;2023-07-13T02:33:52;4.17;;;2.00;;
10277;SDS011;5184;51.376;7.148;2023-07-13T02:36:19;4.23;;;2.00;;
10277;SDS011;5184;51.376;7.148;2023-07-13T02:38:45;3.53;;;2.03;;
10277;SDS011;5184;51.376;7.148;2023-07-13T02:41:12;5.50;;;1.93;;
10277;SDS011;5184;51.376;7.148;2023-07-13T02:43:39;4.20;;;1.80;;
10277;SDS011;5184;51.376;7.148;2023-07-13T02:46:06;4.80;;;2.00;;
10277;SDS011;5184;51.376;7.148;2023-07-13T02:48:33;5.30;;;2.30;;
10277;SDS011;5184;51.376;7.148;2023-07-13T02:51:00;3.87;;;2.00;;
10277;SDS011;5184;51.376;7.148;2023-07-13T02:53:27;4.53;;;1.80;;
10277;SDS011;5184;51.376;7.148;2023-07-13T02:55:54;3.43;;;1.87;;
10277;SDS011;5184;51.376;7.148;2023-07-13T02:58:22;3.17;;;1.90;;
10277;SDS011;5184;51.376;7.148;2023-07-13T03:00:49;2.60;;;1.67;;
10277;SDS011;5184;51.376;7.148;2023-07-13T03:03:16;6.23;;;2.10;;
10277;SDS011;5184;51.376;7.148;2023-07-13T03:05:44;4.07;;;2.00;;
10277;SDS011;5184;51.376;7.148;2023-07-13T03:08:11;3.63;;;1.90;;
10277;SDS011;5184;51.376;7.148;2023-07-13T03:10:38;6.07;;;1.90;;
10277;SDS011;5184;51.376;7.148;2023-07-13T03:13:04;3.87;;;1.80;;
10277;SDS011;5184;51.376;7.148;2023-07-13T03:15:32;4.97;;;2.20;;
10277;SDS011;5184;51.376;7.148;2023-07-13T03:17:58;3.83;;;1.90;;
10277;SDS011;5184;51.376;7.148;2023-07-13T03:20:25;4.87;;;2.20;;
10277;SDS011;5184;51.376;7.148;2023-07-13T03:22:51;5.57;;;2.00;;
10277;SDS011;5184;51.376;7.148;2023-07-13T03:25:18;4.53;;;2.00;;
10277;SDS011;5184;51.376;7.148;2023-07-13T03:27:45;3.53;;;1.77;;
10277;SDS011;5184;51.376;7.148;2023-07-13T03:30:12;3.43;;;2.27;;
10277;SDS011;5184;51.376;7.148;2023-07-13T03:32:39;6.83;;;2.10;;
10277;SDS011;5184;51.376;7.148;2023-07-13T03:35:06;6.70;;;2.17;;
10277;SDS011;5184;51.376;7.148;2023-07-13T03:37:33;4.60;;;2.20;;
10277;SDS011;5184;51.376;7.148;2023-07-13T03:39:59;7.00;;;2.50;;
10277;SDS011;5184;51.376;7.148;2023-07-13T03:42:27;2.53;;;2.20;;
10277;SDS011;5184;51.376;7.148;2023-07-13T03:44:53;4.10;;;1.87;;
10277;SDS011;5184;51.376;7.148;2023-07-13T03:47:20;4.83;;;2.00;;
10277;SDS011;5184;51.376;7.148;2023-07-13T03:49:47;4.70;;;2.20;;
10277;SDS011;5184;51.376;7.148;2023-07-13T03:52:13;4.03;;;2.10;;
10277;SDS011;5184;51.376;7.148;2023-07-13T03:54:40;3.13;;;1.80;;
10277;SDS011;5184;51.376;7.148;2023-07-13T03:57:07;3.90;;;2.07;;
10277;SDS011;5184;51.376;7.148;2023-07-13T03:59:33;6.07;;;2.40;;
10277;SDS011;5184;51.376;7.148;2023-07-13T04:02:01;5.17;;;1.93;;
10277;SDS011;5184;51.376;7.148;2023-07-13T04:04:28;8.60;;;2.10;;
10277;SDS011;5184;51.376;7.148;2023-07-13T04:06:55;4.73;;;2.20;;
10277;SDS011;5184;51.376;7.148;2023-07-13T04:09:22;5.20;;;2.13;;
10277;SDS011;5184;51.376;7.148;2023-07-13T04:11:50;5.83;;;2.00;;
10277;SDS011;5184;51.376;7.148;2023-07-13T04:14:17;3.63;;;1.87;;
10277;SDS011;5184;51.376;7.148;2023-07-13T04:16:45;4.67;;;2.10;;
10277;SDS011;5184;51.376;7.148;2023-07-13T04:19:12;3.67;;;2.10;;
10277;SDS011;5184;51.376;7.148;2023-07-13T04:21:38;3.57;;;2.07;;
10277;SDS011;5184;51.376;7.148;2023-07-13T04:24:04;6.83;;;2.40;;
10277;SDS011;5184;51.376;7.148;2023-07-13T04:26:31;4.93;;;2.20;;
10277;SDS011;5184;51.376;7.148;2023-07-13T04:28:58;5.07;;;2.10;;
10277;SDS011;5184;51.376;7.148;2023-07-13T04:31:24;5.03;;;2.17;;
10277;SDS011;5184;51.376;7.148;2023-07-13T04:33:51;7.37;;;2.53;;
10277;SDS011;5184;51.376;7.148;2023-07-13T04:36:17;4.97;;;2.13;;
10277;SDS011;5184;51.376;7.148;2023-07-13T04:38:44;4.80;;;2.20;;
10277;SDS011;5184;51.376;7.148;2023-07-13T04:41:11;4.80;;;2.10;;
10277;SDS011;5184;51.376;7.148;2023-07-13T04:43:38;4.30;;;2.20;;
10277;SDS011;5184;51.376;7.148;2023-07-13T04:46:06;4.97;;;2.00;;
10277;SDS011;5184;51.376;7.148;2023-07-13T04:48:33;4.80;;;2.20;;
10277;SDS011;5184;51.376;7.148;2023-07-13T04:51:00;3.33;;;2.30;;
10277;SDS011;5184;51.376;7.148;2023-07-13T04:53:27;6.77;;;2.20;;
10277;SDS011;5184;51.376;7.148;2023-07-13T04:55:53;5.53;;;2.07;;
10277;SDS011;5184;51.376;7.148;2023-07-13T04:58:20;4.53;;;2.00;;
10277;SDS011;5184;51.376;7.148;2023-07-13T05:00:46;7.47;;;2.30;;
10277;SDS011;5184;51.376;7.148;2023-07-13T05:03:13;8.80;;;2.47;;
10277;SDS011;5184;51.376;7.148;2023-07-13T05:05:40;6.17;;;2.20;;
10277;SDS011;5184;51.376;7.148;2023-07-13T05:08:08;5.53;;;2.30;;
10277;SDS011;5184;51.376;7.148;2023-07-13T05:10:35;5.13;;;2.27;;
10277;SDS011;5184;51.376;7.148;2023-07-13T05:13:01;5.47;;;2.10;;
10277;SDS011;5184;51.376;7.148;2023-07-13T05:15:27;5.73;;;2.13;;
10277;SDS011;5184;51.376;7.148;2023-07-13T05:17:54;5.03;;;2.37;;
10277;SDS011;5184;51.376;7.148;2023-07-13T05:20:21;4.43;;;2.50;;
10277;SDS011;5184;51.376;7.148;2023-07-13T05:22:47;8.83;;;2.50;;
10277;SDS011;5184;51.376;7.148;2023-07-13T05:25:14;7.37;;;2.30;;
10277;SDS011;5184;51.376;7.148;2023-07-13T05:27:40;6.27;;;2.23;;
10277;SDS011;5184;51.376;7.148;2023-07-13T05:30:07;5.70;;;2.37;;
10277;SDS011;5184;51.376;7.148;2023-07-13T05:32:34;5.67;;;2.27;;
10277;SDS011;5184;51.376;7.148;2023-07-13T05:35:00;8.33;;;2.50;;
10277;SDS011;5184;51.376;7.148;2023-07-13T05:37:28;7.37;;;2.60;;
10277;SDS011;5184;51.376;7.148;2023-07-13T05:39:55;9.87;;;2.30;;
10277;SDS011;5184;51.376;7.148;2023-07-13T05:42:22;10.40;;;2.90;;
10277;SDS011;5184;51.376;7.148;2023-07-13T05:44:48;5.33;;;2.80;;
10277;SDS011;5184;51.376;7.148;2023-07-13T05:47:15;7.73;;;2.20;;
10277;SDS011;5184;51.376;7.148;2023-07-13T05:49:42;5.67;;;2.30;;
10277;SDS011;5184;51.376;7.148;2023-07-13T05:52:08;5.90;;;2.37;;
10277;SDS011;5184;51.376;7.148;2023-07-13T05:54:35;8.90;;;3.20;;
10277;SDS011;5184;51.376;7.148;2023-07-13T05:57:01;7.20;;;2.77;;
10277;SDS011;5184;51.376;7.148;2023-07-13T05:59:29;7.97;;;2.40;;
10277;SDS011;5184;51.376;7.148;2023-07-13T06:01:55;9.43;;;2.93;;
10277;SDS011;5184;51.376;7.148;2023-07-13T06:04:22;6.40;;;2.77;;
10277;SDS011;5184;51.376;7.148;2023-07-13T06:06:49;9.77;;;3.30;;
10277;SDS011;5184;51.376;7.148;2023-07-13T06:09:15;9.23;;;3.33;;
10277;SDS011;5184;51.376;7.148;2023-07-13T06:11:42;5.37;;;2.63;;
10277;SDS011;5184;51.376;7.148;2023-07-13T06:14:08;9.87;;;2.90;;
10277;SDS011;5184;51.376;7.148;2023-07-13T06:16:35;11.83;;;3.80;;
10277;SDS011;5184;51.376;7.148;2023-07-13T06:19:01;6.20;;;2.50;;
10277;SDS011;5184;51.376;7.148;2023-07-13T06:21:28;9.57;;;2.90;;
10277;SDS011;5184;51.376;7.148;2023-07-13T06:23:55;10.30;;;3.07;;
10277;SDS011;5184;51.376;7.148;2023-07-13T06:26:21;7.80;;;3.30;;
10277;SDS011;5184;51.376;7.148;2023-07-13T06:28:48;10.07;;;3.13;;
10277;SDS011;5184;51.376;7.148;2023-07-13T06:31:15;8.97;;;3.77;;
10277;SDS011;5184;51.376;7.148;2023-07-13T06:33:43;8.43;;;3.30;;
10277;SDS011;5184;51.376;7.148;2023-07-13T06:36:10;9.97;;;3.17;;
10277;SDS011;5184;51.376;7.148;2023-07-13T06:38:37;6.80;;;3.10;;
10277;SDS011;5184;51.376;7.148;2023-07-13T06:41:04;6.60;;;3.13;;
10277;SDS011;5184;51.376;7.148;2023-07-13T06:43:30;6.50;;;2.60;;
10277;SDS011;5184;51.376;7.148;2023-07-13T06:45:56;6.37;;;2.83;;
10277;SDS011;5184;51.376;7.148;2023-07-13T06:48:23;7.33;;;3.00;;
10277;SDS011;5184;51.376;7.148;2023-07-13T06:50:49;5.93;;;2.70;;
10277;SDS011;5184;51.376;7.148;2023-07-13T06:53:17;8.00;;;3.00;;
10277;SDS011;5184;51.376;7.148;2023-07-13T06:55:44;10.17;;;3.13;;
10277;SDS011;5184;51.376;7.148;2023-07-13T06:58:11;7.47;;;3.33;;
10277;SDS011;5184;51.376;7.148;2023-07-13T07:00:38;10.67;;;2.93;;
10277;SDS011;5184;51.376;7.148;2023-07-13T07:03:06;7.53;;;3.07;;
10277;SDS011;5184;51.376;7.148;2023-07-13T07:05:32;5.20;;;3.17;;
10277;SDS011;5184;51.376;7.148;2023-07-13T07:07:59;8.67;;;3.10;;
10277;SDS011;5184;51.376;7.148;2023-07-13T07:10:25;7.63;;;3.20;;
10277;SDS011;5184;51.376;7.148;2023-07-13T07:12:52;7.80;;;3.03;;
10277;SDS011;5184;51.376;7.148;2023-07-13T07:15:19;9.27;;;3.20;;
10277;SDS011;5184;51.376;7.148;2023-07-13T07:17:45;7.63;;;3.17;;
10277;SDS011;5184;51.376;7.148;2023-07-13T07:20:13;6.57;;;3.33;;
10277;SDS011;5184;51.376;7.148;2023-07-13T07:22:40;8.70;;;3.37;;
10277;SDS011;5184;51.376;7.148;2023-07-13T07:25:07;8.43;;;3.33;;
10277;SDS011;5184;51.376;7.148;2023-07-13T07:27:34;7.20;;;3.40;;
10277;SDS011;5184;51.376;7.148;2023-07-13T07:30:00;11.77;;;3.30;;
10277;SDS011;5184;51.376;7.148;2023-07-13T07:32:28;8.57;;;3.13;;
10277;SDS011;5184;51.376;7.148;2023-07-13T07:34:54;8.13;;;3.40;;
10277;SDS011;5184;51.376;7.148;2023-07-13T07:37:20;7.40;;;3.07;;
10277;SDS011;5184;51.376;7.148;2023-07-13T07:39:47;7.90;;;3.70;;
10277;SDS011;5184;51.376;7.148;2023-07-13T07:42:15;6.13;;;3.00;;
10277;SDS011;5184;51.376;7.148;2023-07-13T07:44:42;7.40;;;3.50;;
10277;SDS011;5184;51.376;7.148;2023-07-13T07:47:09;9.17;;;3.43;;
10277;SDS011;5184;51.376;7.148;2023-07-13T07:49:36;9.63;;;3.73;;
10277;SDS011;5184;51.376;7.148;2023-07-13T07:52:03;9.63;;;3.60;;
10277;SDS011;5184;51.376;7.148;2023-07-13T07:54:31;7.63;;;3.17;;
10277;SDS011;5184;51.376;7.148;2023-07-13T07:56:58;9.17;;;3.10;;
10277;SDS011;5184;51.376;7.148;2023-07-13T07:59:25;8.00;;;3.30;;
10277;SDS011;5184;51.376;7.148;2023-07-13T08:01:53;6.27;;;3.43;;
10277;SDS011;5184;51.376;7.148;2023-07-13T08:04:20;7.33;;;3.40;;
10277;SDS011;5184;51.376;7.148;2023-07-13T08:06:47;6.83;;;3.20;;
10277;SDS011;5184;51.376;7.148;2023-07-13T08:09:15;9.53;;;3.50;;
10277;SDS011;5184;51.376;7.148;2023-07-13T08:11:42;6.67;;;3.80;;
10277;SDS011;5184;51.376;7.148;2023-07-13T08:14:10;7.53;;;3.70;;
10277;SDS011;5184;51.376;7.148;2023-07-13T08:16:37;7.00;;;3.40;;
10277;SDS011;5184;51.376;7.148;2023-07-13T08:19:04;6.03;;;3.50;;
10277;SDS011;5184;51.376;7.148;2023-07-13T08:21:32;6.77;;;3.27;;
10277;SDS011;5184;51.376;7.148;2023-07-13T08:23:58;7.70;;;3.30;;
10277;SDS011;5184;51.376;7.148;2023-07-13T08:26:25;6.93;;;3.03;;
10277;SDS011;5184;51.376;7.148;2023-07-13T08:28:51;5.10;;;3.20;;
10277;SDS011;5184;51.376;7.148;2023-07-13T08:31:18;7.53;;;3.30;;
10277;SDS011;5184;51.376;7.148;2023-07-13T08:33:45;5.60;;;3.00;;
10277;SDS011;5184;51.376;7.148;2023-07-13T08:36:11;7.47;;;3.53;;
10277;SDS011;5184;51.376;7.148;2023-07-13T08:38:38;8.37;;;3.47;;
10277;SDS011;5184;51.376;7.148;2023-07-13T08:41:12;10.77;;;3.67;;
10277;SDS011;5184;51.376;7.148;2023-07-13T08:43:38;7.20;;;3.70;;
10277;SDS011;5184;51.376;7.148;2023-07-13T08:46:09;7.43;;;3.40;;
10277;SDS011;5184;51.376;7.148;2023-07-13T08:48:40;6.23;;;3.10;;
10277;SDS011;5184;51.376;7.148;2023-07-13T08:51:12;6.53;;;3.13;;
10277;SDS011;5184;51.376;7.148;2023-07-13T08:53:43;8.10;;;3.47;;
10277;SDS011;5184;51.376;7.148;2023-07-13T08:56:03;6.73;;;2.60;;
10277;SDS011;5184;51.376;7.148;2023-07-13T08:58:30;6.60;;;3.23;;
10277;SDS011;5184;51.376;7.148;2023-07-13T09:01:33;5.30;;;3.30;;
10277;SDS011;5184;51.376;7.148;2023-07-13T09:03:53;6.80;;;2.90;;
10277;SDS011;5184;51.376;7.148;2023-07-13T09:06:26;8.47;;;3.60;;
10277;SDS011;5184;51.376;7.148;2023-07-13T09:08:58;7.57;;;3.30;;
10277;SDS011;5184;51.376;7.148;2023-07-13T09:11:34;6.67;;;3.20;;
10277;SDS011;5184;51.376;7.148;2023-07-13T09:14:02;7.17;;;2.90;;
10277;SDS011;5184;51.376;7.148;2023-07-13T09:16:26;8.03;;;3.40;;
10277;SDS011;5184;51.376;7.148;2023-07-13T09:18:54;6.07;;;3.20;;
10277;SDS011;5184;51.376;7.148;2023-07-13T09:21:22;7.27;;;3.33;;
10277;SDS011;5184;51.376;7.148;2023-07-13T09:23:48;6.77;;;3.00;;
10277;SDS011;5184;51.376;7.148;2023-07-13T09:26:19;8.30;;;3.37;;
10277;SDS011;5184;51.376;7.148;2023-07-13T09:28:48;6.83;;;3.17;;
10277;SDS011;5184;51.376;7.148;2023-07-13T09:31:17;7.50;;;2.90;;
10277;SDS011;5184;51.376;7.148;2023-07-13T09:33:43;6.73;;;3.17;;
10277;SDS011;5184;51.376;7.148;2023-07-13T09:36:42;5.77;;;3.00;;
10277;SDS011;5184;51.376;7.148;2023-07-13T09:41:51;8.70;;;3.07;;
10277;SDS011;5184;51.376;7.148;2023-07-13T09:44:27;10.17;;;3.20;;
10277;SDS011;5184;51.376;7.148;2023-07-13T09:46:52;8.23;;;3.20;;
10277;SDS011;5184;51.376;7.148;2023-07-13T09:49:18;7.50;;;2.80;;
10277;SDS011;5184;51.376;7.148;2023-07-13T09:51:45;10.93;;;3.03;;
10277;SDS011;5184;51.376;7.148;2023-07-13T09:54:18;7.07;;;2.83;;
10277;SDS011;5184;51.376;7.148;2023-07-13T09:56:44;5.67;;;2.80;;
10277;SDS011;5184;51.376;7.148;2023-07-13T10:01:45;8.20;;;3.27;;
10277;SDS011;5184;51.376;7.148;2023-07-13T10:04:12;10.30;;;3.60;;
10277;SDS011;5184;51.376;7.148;2023-07-13T10:06:38;6.47;;;3.10;;
10277;SDS011;5184;51.376;7.148;2023-07-13T10:09:06;6.93;;;3.07;;
10277;SDS011;5184;51.376;7.148;2023-07-13T10:11:31;5.70;;;3.00;;
10277;SDS011;5184;51.376;7.148;2023-07-13T10:14:00;6.00;;;3.03;;
10277;SDS011;5184;51.376;7.148;2023-07-13T10:16:28;5.97;;;2.90;;
10277;SDS011;5184;51.376;7.148;2023-07-13T10:18:55;6.43;;;3.00;;
10277;SDS011;5184;51.376;7.148;2023-07-13T10:21:23;6.20;;;2.87;;
10277;SDS011;5184;51.376;7.148;2023-07-13T10:23:51;8.03;;;3.00;;
10277;SDS011;5184;51.376;7.148;2023-07-13T10:26:22;7.10;;;3.07;;
10277;SDS011;5184;51.376;7.148;2023-07-13T10:28:48;6.40;;;2.80;;
10277;SDS011;5184;51.376;7.148;2023-07-13T10:31:15;6.93;;;3.20;;
10277;SDS011;5184;51.376;7.148;2023-07-13T10:33:42;8.17;;;3.40;;
10277;SDS011;5184;51.376;7.148;2023-07-13T10:36:13;6.37;;;3.17;;
10277;SDS011;5184;51.376;7.148;2023-07-13T10:38:38;5.80;;;2.67;;
10277;SDS011;5184;51.376;7.148;2023-07-13T10:41:06;4.93;;;2.33;;
10277;SDS011;5184;51.376;7.148;2023-07-13T10:43:35;4.47;;;2.67;;
10277;SDS011;5184;51.376;7.148;2023-07-13T10:46:01;6.90;;;2.97;;
10277;SDS011;5184;51.376;7.148;2023-07-13T10:48:27;4.83;;;2.40;;
10277;SDS011;5184;51.376;7.148;2023-07-13T10:50:55;5.97;;;2.50;;
10277;SDS011;5184;51.376;7.148;2023-07-13T10:53:30;3.93;;;2.13;;
10277;SDS011;5184;51.376;7.148;2023-07-13T10:56:00;3.60;;;2.23;;
10277;SDS011;5184;51.376;7.148;2023-07-13T10:58:31;5.60;;;2.67;;
10277;SDS011;5184;51.376;7.148;2023-07-13T11:01:02;5.33;;;2.53;;
10277;SDS011;5184;51.376;7.148;2023-07-13T11:03:30;6.73;;;2.50;;
10277;SDS011;5184;51.376;7.148;2023-07-13T11:08:37;5.47;;;2.60;;
10277;SDS011;5184;51.376;7.148;2023-07-13T11:11:02;6.23;;;2.67;;
10277;SDS011;5184;51.376;7.148;2023-07-13T11:18:44;4.83;;;2.27;;
10277;SDS011;5184;51.376;7.148;2023-07-13T11:21:12;5.20;;;2.33;;
10277;SDS011;5184;51.376;7.148;2023-07-13T11:23:38;4.07;;;2.03;;
10277;SDS011;5184;51.376;7.148;2023-07-13T11:26:36;3.77;;;2.03;;
10277;SDS011;5184;51.376;7.148;2023-07-13T11:28:31;6.10;;;2.57;;
10277;SDS011;5184;51.376;7.148;2023-07-13T11:31:00;6.03;;;2.57;;
10277;SDS011;5184;51.376;7.148;2023-07-13T11:33:28;5.10;;;2.40;;
10277;SDS011;5184;51.376;7.148;2023-07-13T11:36:00;4.27;;;2.23;;
10277;SDS011;5184;51.376;7.148;2023-07-13T11:41:10;7.17;;;2.20;;
10277;SDS011;5184;51.376;7.148;2023-07-13T11:43:33;4.47;;;2.10;;
10277;SDS011;5184;51.376;7.148;2023-07-13T11:46:31;5.03;;;2.50;;
10277;SDS011;5184;51.376;7.148;2023-07-13T11:48:42;5.37;;;2.30;;
10277;SDS011;5184;51.376;7.148;2023-07-13T11:51:09;5.13;;;2.33;;
10277;SDS011;5184;51.376;7.148;2023-07-13T11:53:38;5.53;;;2.20;;
10277;SDS011;5184;51.376;7.148;2023-07-13T11:56:03;6.60;;;2.37;;
10277;SDS011;5184;51.376;7.148;2023-07-13T11:58:31;3.57;;;2.07;;
10277;SDS011;5184;51.376;7.148;2023-07-13T12:00:59;5.67;;;2.10;;
10277;SDS011;5184;51.376;7.148;2023-07-13T12:03:26;4.80;;;2.53;;
10277;SDS011;5184;51.376;7.148;2023-07-13T12:05:56;5.17;;;2.40;;
10277;SDS011;5184;51.376;7.148;2023-07-13T12:08:25;4.33;;;2.33;;
10277;SDS011;5184;51.376;7.148;2023-07-13T12:10:56;6.27;;;2.83;;
10277;SDS011;5184;51.376;7.148;2023-07-13T12:13:23;6.37;;;2.37;;
10277;SDS011;5184;51.376;7.148;2023-07-13T12:15:49;2.67;;;1.80;;
10277;SDS011;5184;51.376;7.148;2023-07-13T12:18:18;3.50;;;2.00;;
10277;SDS011;5184;51.376;7.148;2023-07-13T12:20:44;5.73;;;2.37;;
10277;SDS011;5184;51.376;7.148;2023-07-13T12:23:31;4.43;;;2.20;;
10277;SDS011;5184;51.376;7.148;2023-07-13T12:25:56;3.33;;;2.17;;
10277;SDS011;5184;51.376;7.148;2023-07-13T12:31:07;4.07;;;2.07;;
10277;SDS011;5184;51.376;7.148;2023-07-13T12:33:33;3.27;;;2.23;;
10277;SDS011;5184;51.376;7.148;2023-07-13T12:36:01;4.63;;;2.10;;
10277;SDS011;5184;51.376;7.148;2023-07-13T12:38:27;8.87;;;2.50;;
10277;SDS011;5184;51.376;7.148;2023-07-13T12:40:54;10.23;;;2.40;;
10277;SDS011;5184;51.376;7.148;2023-07-13T12:43:21;5.50;;;2.30;;
10277;SDS011;5184;51.376;7.148;2023-07-13T12:48:23;2.80;;;1.87;;
10277;SDS011;5184;51.376;7.148;2023-07-13T12:50:50;4.47;;;2.03;;
10277;SDS011;5184;51.376;7.148;2023-07-13T12:53:19;4.90;;;2.07;;
10277;SDS011;5184;51.376;7.148;2023-07-13T12:55:59;3.43;;;1.73;;
10277;SDS011;5184;51.376;7.148;2023-07-13T12:58:26;4.50;;;2.10;;
10277;SDS011;5184;51.376;7.148;2023-07-13T13:00:53;6.63;;;2.10;;
10277;SDS011;5184;51.376;7.148;2023-07-13T13:03:25;4.60;;;2.00;;
10277;SDS011;5184;51.376;7.148;2023-07-13T13:05:49;5.40;;;2.00;;
10277;SDS011;5184;51.376;7.148;2023-07-13T13:08:17;5.13;;;1.90;;
10277;SDS011;5184;51.376;7.148;2023-07-13T13:10:43;4.67;;;2.30;;
10277;SDS011;5184;51.376;7.148;2023-07-13T13:13:10;4.30;;;1.90;;
10277;SDS011;5184;51.376;7.148;2023-07-13T13:15:36;4.20;;;2.37;;
10277;SDS011;5184;51.376;7.148;2023-07-13T13:18:04;3.53;;;2.27;;
10277;SDS011;5184;51.376;7.148;2023-07-13T13:20:30;4.57;;;2.00;;
10277;SDS011;5184;51.376;7.148;2023-07-13T13:22:57;3.73;;;2.10;;
10277;SDS011;5184;51.376;7.148;2023-07-13T13:25:24;5.43;;;2.30;;
10277;SDS011;5184;51.376;7.148;2023-07-13T13:27:52;4.00;;;1.80;;
10277;SDS011;5184;51.376;7.148;2023-07-13T13:30:19;4.50;;;2.10;;
10277;SDS011;5184;51.376;7.148;2023-07-13T13:32:47;2.37;;;1.80;;
10277;SDS011;5184;51.376;7.148;2023-07-13T13:35:14;5.10;;;2.00;;
10277;SDS011;5184;51.376;7.148;2023-07-13T13:37:40;3.70;;;2.07;;
10277;SDS011;5184;51.376;7.148;2023-07-13T13:42:41;3.10;;;1.80;;
10277;SDS011;5184;51.376;7.148;2023-07-13T13:45:09;2.73;;;1.90;;
10277;SDS011;5184;51.376;7.148;2023-07-13T13:47:36;3.37;;;1.93;;
10277;SDS011;5184;51.376;7.148;2023-07-13T13:52:38;3.90;;;1.73;;
10277;SDS011;5184;51.376;7.148;2023-07-13T13:55:13;4.57;;;1.93;;
10277;SDS011;5184;51.376;7.148;2023-07-13T13:57:41;3.90;;;2.00;;
10277;SDS011;5184;51.376;7.148;2023-07-13T14:00:09;6.87;;;2.20;;
10277;SDS011;5184;51.376;7.148;2023-07-13T14:02:35;3.30;;;1.90;;
10277;SDS011;5184;51.376;7.148;2023-07-13T14:05:03;6.77;;;2.10;;
10277;SDS011;5184;51.376;7.148;2023-07-13T14:07:29;2.67;;;1.80;;
10277;SDS011;5184;51.376;7.148;2023-07-13T14:09:56;3.23;;;1.87;;
10277;SDS011;5184;51.376;7.148;2023-07-13T14:12:23;5.87;;;2.00;;
10277;SDS011;5184;51.376;7.148;2023-07-13T14:14:50;4.93;;;2.10;;
10277;SDS011;5184;51.376;7.148;2023-07-13T14:17:19;3.60;;;2.13;;
10277;SDS011;5184;51.376;7.148;2023-07-13T14:19:46;3.40;;;2.00;;
10277;SDS011;5184;51.376;7.148;2023-07-13T14:22:12;5.30;;;2.60;;
10277;SDS011;5184;51.376;7.148;2023-07-13T14:24:39;6.73;;;2.57;;
10277;SDS011;5184;51.376;7.148;2023-07-13T14:27:07;3.17;;;2.20;;
10277;SDS011;5184;51.376;7.148;2023-07-13T14:29:32;2.93;;;2.27;;
10277;SDS011;5184;51.376;7.148;2023-07-13T14:31:59;3.30;;;2.03;;
10277;SDS011;5184;51.376;7.148;2023-07-13T14:34:27;3.00;;;2.10;;
10277;SDS011;5184;51.376;7.148;2023-07-13T14:36:54;4.13;;;2.20;;
10277;SDS011;5184;51.376;7.148;2023-07-13T14:39:22;3.80;;;1.90;;
10277;SDS011;5184;51.376;7.148;2023-07-13T14:41:49;5.77;;;2.43;;
10277;SDS011;5184;51.376;7.148;2023-07-13T14:44:15;5.23;;;2.47;;
10277;SDS011;5184;51.376;7.148;2023-07-13T14:46:40;5.30;;;2.73;;
10277;SDS011;5184;51.376;7.148;2023-07-13T14:49:13;6.50;;;2.93;;
10277;SDS011;5184;51.376;7.148;2023-07-13T14:51:39;6.53;;;3.20;;
10277;SDS011;5184;51.376;7.148;2023-07-13T14:54:08;5.63;;;3.17;;
10277;SDS011;5184;51.376;7.148;2023-07-13T14:56:33;5.87;;;3.17;;
10277;SDS011;5184;51.376;7.148;2023-07-13T14:58:59;4.67;;;3.13;;
10277;SDS011;5184;51.376;7.148;2023-07-13T15:01:26;5.23;;;3.20;;
10277;SDS011;5184;51.376;7.148;2023-07-13T15:03:53;7.57;;;4.00;;
10277;SDS011;5184;51.376;7.148;2023-07-13T15:06:20;4.50;;;3.20;;
10277;SDS011;5184;51.376;7.148;2023-07-13T15:08:48;5.40;;;3.40;;
10277;SDS011;5184;51.376;7.148;2023-07-13T15:11:15;7.50;;;3.43;;
10277;SDS011;5184;51.376;7.148;2023-07-13T15:13:41;5.93;;;3.50;;
10277;SDS011;5184;51.376;7.148;2023-07-13T15:16:17;6.20;;;3.23;;
10277;SDS011;5184;51.376;7.148;2023-07-13T15:18:44;4.77;;;3.30;;
10277;SDS011;5184;51.376;7.148;2023-07-13T15:21:12;5.63;;;3.50;;
10277;SDS011;5184;51.376;7.148;2023-07-13T15:23:38;6.73;;;3.40;;
10277;SDS011;5184;51.376;7.148;2023-07-13T15:26:08;5.83;;;3.30;;
10277;SDS011;5184;51.376;7.148;2023-07-13T15:28:33;7.43;;;3.67;;
10277;SDS011;5184;51.376;7.148;2023-07-13T15:31:00;6.27;;;3.30;;